sensor_id;sensor_type;location;lat;lon;timestamp;P1;durP1;ratioP1;P2;durP2;ratioP2
25905;SDS011;13713;52.552;13.204;2023-11-19T00:00:25;16.98;;;11.20;;
25905;SDS011;13713;52.552;13.204;2023-11-19T00:02:51;17.55;;;11.73;;
25905;SDS011;13713;52.552;13.204;2023-11-19T00:05:17;15.68;;;10.63;;
25905;SDS011;13713;52.552;13.204;2023-11-19T00:07:43;17.35;;;11.65;;
25905;SDS011;13713;52.552;13.204;2023-11-19T00:10:13;17.25;;;11.10;;
25905;SDS011;13713;52.552;13.204;2023-11-19T00:12:44;17.60;;;11.63;;
25905;SDS011;13713;52.552;13.204;2023-11-19T00:15:12;16.60;;;11.45;;
25905;SDS011;13713;52.552;13.204;2023-11-19T00:17:38;18.63;;;11.93;;
25905;SDS011;13713;52.552;13.204;2023-11-19T00:20:18;18.35;;;12.25;;
25905;SDS011;13713;52.552;13.204;2023-11-19T00:22:46;17.55;;;11.80;;
25905;SDS011;13713;52.552;13.204;2023-11-19T00:25:16;18.33;;;12.32;;
25905;SDS011;13713;52.552;13.204;2023-11-19T00:27:43;16.45;;;11.35;;
25905;SDS011;13713;52.552;13.204;2023-11-19T00:30:11;18.95;;;12.30;;
25905;SDS011;13713;52.552;13.204;2023-11-19T00:32:38;17.95;;;12.13;;
25905;SDS011;13713;52.552;13.204;2023-11-19T00:35:07;17.95;;;12.27;;
25905;SDS011;13713;52.552;13.204;2023-11-19T00:37:35;16.33;;;11.52;;
25905;SDS011;13713;52.552;13.204;2023-11-19T00:40:01;18.13;;;12.10;;
25905;SDS011;13713;52.552;13.204;2023-11-19T00:42:30;16.85;;;11.60;;
25905;SDS011;13713;52.552;13.204;2023-11-19T00:44:56;17.15;;;11.60;;
25905;SDS011;13713;52.552;13.204;2023-11-19T00:47:23;19.45;;;12.52;;
25905;SDS011;13713;52.552;13.204;2023-11-19T00:49:48;19.30;;;11.80;;
25905;SDS011;13713;52.552;13.204;2023-11-19T00:52:15;16.73;;;11.68;;
25905;SDS011;13713;52.552;13.204;2023-11-19T00:54:41;16.85;;;10.95;;
25905;SDS011;13713;52.552;13.204;2023-11-19T00:57:07;17.88;;;12.70;;
25905;SDS011;13713;52.552;13.204;2023-11-19T00:59:33;18.05;;;12.45;;
25905;SDS011;13713;52.552;13.204;2023-11-19T01:01:59;19.42;;;12.40;;
25905;SDS011;13713;52.552;13.204;2023-11-19T01:04:29;17.58;;;11.75;;
25905;SDS011;13713;52.552;13.204;2023-11-19T01:06:55;17.85;;;13.00;;
25905;SDS011;13713;52.552;13.204;2023-11-19T01:09:20;19.02;;;12.70;;
25905;SDS011;13713;52.552;13.204;2023-11-19T01:11:46;17.60;;;11.38;;
25905;SDS011;13713;52.552;13.204;2023-11-19T01:14:12;17.30;;;12.00;;
25905;SDS011;13713;52.552;13.204;2023-11-19T01:16:37;16.02;;;11.73;;
25905;SDS011;13713;52.552;13.204;2023-11-19T01:19:03;18.05;;;11.93;;
25905;SDS011;13713;52.552;13.204;2023-11-19T01:21:30;18.58;;;12.90;;
25905;SDS011;13713;52.552;13.204;2023-11-19T01:23:57;17.30;;;11.52;;
25905;SDS011;13713;52.552;13.204;2023-11-19T01:26:23;17.90;;;11.65;;
25905;SDS011;13713;52.552;13.204;2023-11-19T01:28:49;17.58;;;12.02;;
25905;SDS011;13713;52.552;13.204;2023-11-19T01:31:17;15.48;;;11.23;;
25905;SDS011;13713;52.552;13.204;2023-11-19T01:33:43;15.90;;;11.65;;
25905;SDS011;13713;52.552;13.204;2023-11-19T01:36:12;18.92;;;12.43;;
25905;SDS011;13713;52.552;13.204;2023-11-19T01:38:38;17.13;;;11.85;;
25905;SDS011;13713;52.552;13.204;2023-11-19T01:41:04;16.98;;;12.13;;
25905;SDS011;13713;52.552;13.204;2023-11-19T01:43:33;18.83;;;12.88;;
25905;SDS011;13713;52.552;13.204;2023-11-19T01:46:04;18.77;;;12.27;;
25905;SDS011;13713;52.552;13.204;2023-11-19T01:48:35;16.45;;;11.57;;
25905;SDS011;13713;52.552;13.204;2023-11-19T01:51:05;18.17;;;11.77;;
25905;SDS011;13713;52.552;13.204;2023-11-19T01:53:33;18.42;;;12.52;;
25905;SDS011;13713;52.552;13.204;2023-11-19T01:56:02;17.35;;;11.82;;
25905;SDS011;13713;52.552;13.204;2023-11-19T01:58:29;19.25;;;12.32;;
25905;SDS011;13713;52.552;13.204;2023-11-19T02:00:55;19.98;;;13.32;;
25905;SDS011;13713;52.552;13.204;2023-11-19T02:03:22;17.63;;;12.25;;
25905;SDS011;13713;52.552;13.204;2023-11-19T02:05:51;17.17;;;11.52;;
25905;SDS011;13713;52.552;13.204;2023-11-19T02:08:18;16.17;;;11.30;;
25905;SDS011;13713;52.552;13.204;2023-11-19T02:10:44;17.27;;;11.95;;
25905;SDS011;13713;52.552;13.204;2023-11-19T02:13:10;16.90;;;11.73;;
25905;SDS011;13713;52.552;13.204;2023-11-19T02:15:38;18.10;;;12.35;;
25905;SDS011;13713;52.552;13.204;2023-11-19T02:18:21;17.67;;;11.57;;
25905;SDS011;13713;52.552;13.204;2023-11-19T02:20:49;17.45;;;11.98;;
25905;SDS011;13713;52.552;13.204;2023-11-19T02:23:15;18.13;;;12.05;;
25905;SDS011;13713;52.552;13.204;2023-11-19T02:25:42;16.52;;;11.13;;
25905;SDS011;13713;52.552;13.204;2023-11-19T02:28:12;18.65;;;11.60;;
25905;SDS011;13713;52.552;13.204;2023-11-19T02:30:39;17.55;;;11.77;;
25905;SDS011;13713;52.552;13.204;2023-11-19T02:33:05;17.45;;;12.40;;
25905;SDS011;13713;52.552;13.204;2023-11-19T02:35:31;18.15;;;11.90;;
25905;SDS011;13713;52.552;13.204;2023-11-19T02:37:58;16.30;;;11.48;;
25905;SDS011;13713;52.552;13.204;2023-11-19T02:40:25;15.65;;;11.32;;
25905;SDS011;13713;52.552;13.204;2023-11-19T02:42:52;17.02;;;11.68;;
25905;SDS011;13713;52.552;13.204;2023-11-19T02:45:20;16.58;;;11.23;;
25905;SDS011;13713;52.552;13.204;2023-11-19T02:47:50;18.30;;;11.63;;
25905;SDS011;13713;52.552;13.204;2023-11-19T02:50:17;16.30;;;11.27;;
25905;SDS011;13713;52.552;13.204;2023-11-19T02:52:50;16.00;;;11.43;;
25905;SDS011;13713;52.552;13.204;2023-11-19T02:55:17;17.80;;;12.80;;
25905;SDS011;13713;52.552;13.204;2023-11-19T02:57:43;16.10;;;10.98;;
25905;SDS011;13713;52.552;13.204;2023-11-19T03:00:15;16.05;;;11.30;;
25905;SDS011;13713;52.552;13.204;2023-11-19T03:02:43;15.90;;;11.23;;
25905;SDS011;13713;52.552;13.204;2023-11-19T03:05:19;17.10;;;11.13;;
25905;SDS011;13713;52.552;13.204;2023-11-19T03:07:45;16.40;;;11.15;;
25905;SDS011;13713;52.552;13.204;2023-11-19T03:10:11;16.42;;;12.18;;
25905;SDS011;13713;52.552;13.204;2023-11-19T03:12:43;16.33;;;11.38;;
25905;SDS011;13713;52.552;13.204;2023-11-19T03:17:38;14.50;;;10.48;;
25905;SDS011;13713;52.552;13.204;2023-11-19T03:20:05;14.70;;;10.85;;
25905;SDS011;13713;52.552;13.204;2023-11-19T03:22:35;15.52;;;11.80;;
25905;SDS011;13713;52.552;13.204;2023-11-19T03:25:03;16.40;;;10.52;;
25905;SDS011;13713;52.552;13.204;2023-11-19T03:27:29;16.60;;;11.13;;
25905;SDS011;13713;52.552;13.204;2023-11-19T03:29:55;17.30;;;11.98;;
25905;SDS011;13713;52.552;13.204;2023-11-19T03:32:21;16.02;;;11.10;;
25905;SDS011;13713;52.552;13.204;2023-11-19T03:34:46;17.38;;;10.52;;
25905;SDS011;13713;52.552;13.204;2023-11-19T03:37:12;16.98;;;12.00;;
25905;SDS011;13713;52.552;13.204;2023-11-19T03:39:42;14.38;;;10.75;;
25905;SDS011;13713;52.552;13.204;2023-11-19T03:42:08;15.70;;;10.65;;
25905;SDS011;13713;52.552;13.204;2023-11-19T03:44:33;17.35;;;11.82;;
25905;SDS011;13713;52.552;13.204;2023-11-19T03:46:59;15.07;;;11.07;;
25905;SDS011;13713;52.552;13.204;2023-11-19T03:49:25;16.58;;;12.05;;
25905;SDS011;13713;52.552;13.204;2023-11-19T03:51:51;15.70;;;10.63;;
25905;SDS011;13713;52.552;13.204;2023-11-19T03:54:17;14.68;;;10.30;;
25905;SDS011;13713;52.552;13.204;2023-11-19T03:56:43;15.60;;;11.13;;
25905;SDS011;13713;52.552;13.204;2023-11-19T03:59:08;15.25;;;10.93;;
25905;SDS011;13713;52.552;13.204;2023-11-19T04:01:35;16.33;;;11.15;;
25905;SDS011;13713;52.552;13.204;2023-11-19T04:04:02;15.63;;;10.68;;
25905;SDS011;13713;52.552;13.204;2023-11-19T04:06:28;15.50;;;10.88;;
25905;SDS011;13713;52.552;13.204;2023-11-19T04:08:53;16.20;;;11.18;;
25905;SDS011;13713;52.552;13.204;2023-11-19T04:11:19;14.30;;;10.30;;
25905;SDS011;13713;52.552;13.204;2023-11-19T04:13:45;16.02;;;11.20;;
25905;SDS011;13713;52.552;13.204;2023-11-19T04:16:10;15.40;;;11.15;;
25905;SDS011;13713;52.552;13.204;2023-11-19T04:18:36;15.73;;;10.70;;
25905;SDS011;13713;52.552;13.204;2023-11-19T04:21:05;16.00;;;10.57;;
25905;SDS011;13713;52.552;13.204;2023-11-19T04:23:31;15.45;;;10.90;;
25905;SDS011;13713;52.552;13.204;2023-11-19T04:25:57;14.18;;;10.43;;
25905;SDS011;13713;52.552;13.204;2023-11-19T04:28:23;14.52;;;10.38;;
25905;SDS011;13713;52.552;13.204;2023-11-19T04:30:52;16.33;;;10.55;;
25905;SDS011;13713;52.552;13.204;2023-11-19T04:33:17;15.20;;;10.57;;
25905;SDS011;13713;52.552;13.204;2023-11-19T04:35:43;16.00;;;10.70;;
25905;SDS011;13713;52.552;13.204;2023-11-19T04:38:09;14.38;;;10.82;;
25905;SDS011;13713;52.552;13.204;2023-11-19T04:40:35;15.07;;;11.02;;
25905;SDS011;13713;52.552;13.204;2023-11-19T04:43:01;15.15;;;10.65;;
25905;SDS011;13713;52.552;13.204;2023-11-19T04:45:26;15.32;;;10.60;;
25905;SDS011;13713;52.552;13.204;2023-11-19T04:47:52;16.25;;;10.98;;
25905;SDS011;13713;52.552;13.204;2023-11-19T04:50:18;13.80;;;10.32;;
25905;SDS011;13713;52.552;13.204;2023-11-19T04:52:44;13.63;;;10.27;;
25905;SDS011;13713;52.552;13.204;2023-11-19T04:55:10;15.50;;;10.90;;
25905;SDS011;13713;52.552;13.204;2023-11-19T04:57:37;15.00;;;10.85;;
25905;SDS011;13713;52.552;13.204;2023-11-19T05:00:04;14.50;;;10.20;;
25905;SDS011;13713;52.552;13.204;2023-11-19T05:02:30;15.65;;;11.05;;
25905;SDS011;13713;52.552;13.204;2023-11-19T05:04:56;16.63;;;10.85;;
25905;SDS011;13713;52.552;13.204;2023-11-19T05:07:22;15.05;;;10.70;;
25905;SDS011;13713;52.552;13.204;2023-11-19T05:09:48;15.45;;;10.55;;
25905;SDS011;13713;52.552;13.204;2023-11-19T05:12:13;14.25;;;10.68;;
25905;SDS011;13713;52.552;13.204;2023-11-19T05:14:39;15.80;;;10.40;;
25905;SDS011;13713;52.552;13.204;2023-11-19T05:17:05;13.60;;;9.63;;
25905;SDS011;13713;52.552;13.204;2023-11-19T05:19:30;15.23;;;10.40;;
25905;SDS011;13713;52.552;13.204;2023-11-19T05:21:56;15.15;;;10.35;;
25905;SDS011;13713;52.552;13.204;2023-11-19T05:24:22;14.48;;;10.07;;
25905;SDS011;13713;52.552;13.204;2023-11-19T05:26:48;14.35;;;9.95;;
25905;SDS011;13713;52.552;13.204;2023-11-19T05:29:15;14.05;;;10.35;;
25905;SDS011;13713;52.552;13.204;2023-11-19T05:31:41;14.15;;;10.02;;
25905;SDS011;13713;52.552;13.204;2023-11-19T05:34:07;14.85;;;10.93;;
25905;SDS011;13713;52.552;13.204;2023-11-19T05:36:33;15.27;;;10.85;;
25905;SDS011;13713;52.552;13.204;2023-11-19T05:38:58;15.48;;;9.90;;
25905;SDS011;13713;52.552;13.204;2023-11-19T05:41:24;15.43;;;10.57;;
25905;SDS011;13713;52.552;13.204;2023-11-19T05:43:50;12.50;;;9.35;;
25905;SDS011;13713;52.552;13.204;2023-11-19T05:46:16;14.77;;;9.65;;
25905;SDS011;13713;52.552;13.204;2023-11-19T05:48:42;14.25;;;9.63;;
25905;SDS011;13713;52.552;13.204;2023-11-19T05:51:08;13.65;;;9.70;;
25905;SDS011;13713;52.552;13.204;2023-11-19T05:53:34;15.27;;;9.77;;
25905;SDS011;13713;52.552;13.204;2023-11-19T05:55:59;15.10;;;10.57;;
25905;SDS011;13713;52.552;13.204;2023-11-19T05:58:29;13.23;;;9.35;;
25905;SDS011;13713;52.552;13.204;2023-11-19T06:00:55;13.65;;;9.60;;
25905;SDS011;13713;52.552;13.204;2023-11-19T06:03:22;15.95;;;10.23;;
25905;SDS011;13713;52.552;13.204;2023-11-19T06:05:48;14.00;;;9.85;;
25905;SDS011;13713;52.552;13.204;2023-11-19T06:08:15;12.50;;;9.15;;
25905;SDS011;13713;52.552;13.204;2023-11-19T06:10:42;12.90;;;9.65;;
25905;SDS011;13713;52.552;13.204;2023-11-19T06:13:08;12.80;;;8.95;;
25905;SDS011;13713;52.552;13.204;2023-11-19T06:15:36;11.85;;;9.02;;
25905;SDS011;13713;52.552;13.204;2023-11-19T06:18:03;13.63;;;9.10;;
25905;SDS011;13713;52.552;13.204;2023-11-19T06:20:29;13.70;;;9.40;;
25905;SDS011;13713;52.552;13.204;2023-11-19T06:22:56;13.95;;;9.85;;
25905;SDS011;13713;52.552;13.204;2023-11-19T06:25:22;13.15;;;8.90;;
25905;SDS011;13713;52.552;13.204;2023-11-19T06:27:49;11.48;;;8.55;;
25905;SDS011;13713;52.552;13.204;2023-11-19T06:30:15;13.60;;;9.18;;
25905;SDS011;13713;52.552;13.204;2023-11-19T06:32:41;13.45;;;9.98;;
25905;SDS011;13713;52.552;13.204;2023-11-19T06:35:07;13.93;;;9.98;;
25905;SDS011;13713;52.552;13.204;2023-11-19T06:37:34;12.73;;;9.45;;
25905;SDS011;13713;52.552;13.204;2023-11-19T06:40:07;12.93;;;9.27;;
25905;SDS011;13713;52.552;13.204;2023-11-19T06:42:34;13.20;;;9.68;;
25905;SDS011;13713;52.552;13.204;2023-11-19T06:45:00;12.60;;;8.95;;
25905;SDS011;13713;52.552;13.204;2023-11-19T06:47:27;14.15;;;9.25;;
25905;SDS011;13713;52.552;13.204;2023-11-19T06:49:53;11.80;;;8.85;;
25905;SDS011;13713;52.552;13.204;2023-11-19T06:52:19;12.65;;;8.68;;
25905;SDS011;13713;52.552;13.204;2023-11-19T06:54:45;13.65;;;9.73;;
25905;SDS011;13713;52.552;13.204;2023-11-19T06:57:11;13.07;;;9.38;;
25905;SDS011;13713;52.552;13.204;2023-11-19T06:59:37;11.82;;;8.85;;
25905;SDS011;13713;52.552;13.204;2023-11-19T07:02:03;12.73;;;9.40;;
25905;SDS011;13713;52.552;13.204;2023-11-19T07:04:30;11.98;;;9.10;;
25905;SDS011;13713;52.552;13.204;2023-11-19T07:06:56;12.40;;;8.77;;
25905;SDS011;13713;52.552;13.204;2023-11-19T07:09:21;10.88;;;8.50;;
25905;SDS011;13713;52.552;13.204;2023-11-19T07:11:48;13.30;;;9.35;;
25905;SDS011;13713;52.552;13.204;2023-11-19T07:14:17;11.80;;;8.60;;
25905;SDS011;13713;52.552;13.204;2023-11-19T07:16:43;12.90;;;8.70;;
25905;SDS011;13713;52.552;13.204;2023-11-19T07:19:09;12.25;;;8.52;;
25905;SDS011;13713;52.552;13.204;2023-11-19T07:21:35;11.63;;;8.63;;
25905;SDS011;13713;52.552;13.204;2023-11-19T07:24:04;12.13;;;8.65;;
25905;SDS011;13713;52.552;13.204;2023-11-19T07:26:30;12.40;;;9.13;;
25905;SDS011;13713;52.552;13.204;2023-11-19T07:28:56;12.10;;;8.40;;
25905;SDS011;13713;52.552;13.204;2023-11-19T07:31:23;13.25;;;9.55;;
25905;SDS011;13713;52.552;13.204;2023-11-19T07:33:49;12.02;;;8.32;;
25905;SDS011;13713;52.552;13.204;2023-11-19T07:36:15;11.02;;;8.23;;
25905;SDS011;13713;52.552;13.204;2023-11-19T07:38:41;10.40;;;7.95;;
25905;SDS011;13713;52.552;13.204;2023-11-19T07:41:07;11.23;;;8.18;;
25905;SDS011;13713;52.552;13.204;2023-11-19T07:43:39;11.77;;;8.40;;
25905;SDS011;13713;52.552;13.204;2023-11-19T07:46:10;11.65;;;8.05;;
25905;SDS011;13713;52.552;13.204;2023-11-19T07:51:03;13.07;;;8.55;;
25905;SDS011;13713;52.552;13.204;2023-11-19T07:53:29;11.30;;;8.27;;
25905;SDS011;13713;52.552;13.204;2023-11-19T07:55:55;12.05;;;8.38;;
25905;SDS011;13713;52.552;13.204;2023-11-19T07:58:21;12.40;;;8.73;;
25905;SDS011;13713;52.552;13.204;2023-11-19T08:00:46;11.15;;;8.00;;
25905;SDS011;13713;52.552;13.204;2023-11-19T08:03:12;12.07;;;8.38;;
25905;SDS011;13713;52.552;13.204;2023-11-19T08:05:38;11.60;;;8.50;;
25905;SDS011;13713;52.552;13.204;2023-11-19T08:08:04;12.05;;;8.85;;
25905;SDS011;13713;52.552;13.204;2023-11-19T08:10:30;11.38;;;8.05;;
25905;SDS011;13713;52.552;13.204;2023-11-19T08:12:55;11.77;;;8.40;;
25905;SDS011;13713;52.552;13.204;2023-11-19T08:15:21;10.90;;;8.18;;
25905;SDS011;13713;52.552;13.204;2023-11-19T08:17:47;13.38;;;8.00;;
25905;SDS011;13713;52.552;13.204;2023-11-19T08:20:12;11.60;;;7.90;;
25905;SDS011;13713;52.552;13.204;2023-11-19T08:22:40;12.57;;;8.80;;
25905;SDS011;13713;52.552;13.204;2023-11-19T08:25:05;10.50;;;7.95;;
25905;SDS011;13713;52.552;13.204;2023-11-19T08:27:31;13.68;;;8.15;;
25905;SDS011;13713;52.552;13.204;2023-11-19T08:29:57;11.90;;;8.50;;
25905;SDS011;13713;52.552;13.204;2023-11-19T08:32:26;11.40;;;8.68;;
25905;SDS011;13713;52.552;13.204;2023-11-19T08:34:52;10.85;;;8.20;;
25905;SDS011;13713;52.552;13.204;2023-11-19T08:37:18;11.88;;;8.52;;
25905;SDS011;13713;52.552;13.204;2023-11-19T08:39:49;10.15;;;7.80;;
25905;SDS011;13713;52.552;13.204;2023-11-19T08:42:16;11.50;;;7.95;;
25905;SDS011;13713;52.552;13.204;2023-11-19T08:44:42;11.00;;;7.75;;
25905;SDS011;13713;52.552;13.204;2023-11-19T08:47:14;10.98;;;7.72;;
25905;SDS011;13713;52.552;13.204;2023-11-19T08:49:43;10.43;;;7.32;;
25905;SDS011;13713;52.552;13.204;2023-11-19T08:52:09;11.50;;;7.50;;
25905;SDS011;13713;52.552;13.204;2023-11-19T08:54:42;10.93;;;7.72;;
25905;SDS011;13713;52.552;13.204;2023-11-19T08:57:08;12.30;;;8.50;;
25905;SDS011;13713;52.552;13.204;2023-11-19T08:59:34;10.82;;;7.70;;
25905;SDS011;13713;52.552;13.204;2023-11-19T09:02:00;10.90;;;8.25;;
25905;SDS011;13713;52.552;13.204;2023-11-19T09:04:27;12.88;;;8.65;;
25905;SDS011;13713;52.552;13.204;2023-11-19T09:06:52;9.15;;;7.13;;
25905;SDS011;13713;52.552;13.204;2023-11-19T09:09:18;10.75;;;7.72;;
25905;SDS011;13713;52.552;13.204;2023-11-19T09:11:44;11.32;;;8.38;;
25905;SDS011;13713;52.552;13.204;2023-11-19T09:14:09;11.18;;;7.80;;
25905;SDS011;13713;52.552;13.204;2023-11-19T09:16:35;11.88;;;8.60;;
25905;SDS011;13713;52.552;13.204;2023-11-19T09:19:01;11.55;;;8.52;;
25905;SDS011;13713;52.552;13.204;2023-11-19T09:21:27;11.05;;;8.02;;
25905;SDS011;13713;52.552;13.204;2023-11-19T09:23:57;11.45;;;8.13;;
25905;SDS011;13713;52.552;13.204;2023-11-19T09:26:23;11.65;;;8.50;;
25905;SDS011;13713;52.552;13.204;2023-11-19T09:28:49;10.65;;;7.57;;
25905;SDS011;13713;52.552;13.204;2023-11-19T09:31:15;10.82;;;7.60;;
25905;SDS011;13713;52.552;13.204;2023-11-19T09:33:41;9.43;;;7.60;;
25905;SDS011;13713;52.552;13.204;2023-11-19T09:36:07;10.40;;;7.63;;
25905;SDS011;13713;52.552;13.204;2023-11-19T09:38:34;10.18;;;7.53;;
25905;SDS011;13713;52.552;13.204;2023-11-19T09:41:04;11.25;;;7.70;;
25905;SDS011;13713;52.552;13.204;2023-11-19T09:43:33;9.95;;;7.43;;
25905;SDS011;13713;52.552;13.204;2023-11-19T09:46:01;10.05;;;7.43;;
25905;SDS011;13713;52.552;13.204;2023-11-19T09:48:37;11.05;;;8.50;;
25905;SDS011;13713;52.552;13.204;2023-11-19T09:51:07;10.40;;;7.20;;
25905;SDS011;13713;52.552;13.204;2023-11-19T09:53:33;8.85;;;7.10;;
25905;SDS011;13713;52.552;13.204;2023-11-19T09:56:01;11.10;;;7.80;;
25905;SDS011;13713;52.552;13.204;2023-11-19T09:58:32;11.73;;;7.70;;
25905;SDS011;13713;52.552;13.204;2023-11-19T10:00:58;11.05;;;7.95;;
25905;SDS011;13713;52.552;13.204;2023-11-19T10:03:25;10.35;;;7.22;;
25905;SDS011;13713;52.552;13.204;2023-11-19T10:05:54;9.05;;;6.85;;
25905;SDS011;13713;52.552;13.204;2023-11-19T10:08:21;11.25;;;8.13;;
25905;SDS011;13713;52.552;13.204;2023-11-19T10:10:47;9.88;;;7.50;;
25905;SDS011;13713;52.552;13.204;2023-11-19T10:13:13;10.30;;;7.18;;
25905;SDS011;13713;52.552;13.204;2023-11-19T10:15:39;10.52;;;7.40;;
25905;SDS011;13713;52.552;13.204;2023-11-19T10:18:06;9.18;;;7.25;;
25905;SDS011;13713;52.552;13.204;2023-11-19T10:20:35;11.20;;;7.80;;
25905;SDS011;13713;52.552;13.204;2023-11-19T10:23:06;9.57;;;7.22;;
25905;SDS011;13713;52.552;13.204;2023-11-19T10:25:32;9.90;;;7.07;;
25905;SDS011;13713;52.552;13.204;2023-11-19T10:27:59;10.07;;;7.32;;
25905;SDS011;13713;52.552;13.204;2023-11-19T10:30:26;9.23;;;7.03;;
25905;SDS011;13713;52.552;13.204;2023-11-19T10:35:52;8.95;;;6.57;;
25905;SDS011;13713;52.552;13.204;2023-11-19T10:38:19;9.57;;;7.32;;
25905;SDS011;13713;52.552;13.204;2023-11-19T10:40:47;9.80;;;7.30;;
25905;SDS011;13713;52.552;13.204;2023-11-19T10:43:13;10.00;;;7.07;;
25905;SDS011;13713;52.552;13.204;2023-11-19T10:45:39;9.73;;;6.93;;
25905;SDS011;13713;52.552;13.204;2023-11-19T10:48:06;10.02;;;6.95;;
25905;SDS011;13713;52.552;13.204;2023-11-19T10:50:32;9.13;;;7.20;;
25905;SDS011;13713;52.552;13.204;2023-11-19T10:52:59;10.65;;;7.28;;
25905;SDS011;13713;52.552;13.204;2023-11-19T10:55:35;10.18;;;7.13;;
25905;SDS011;13713;52.552;13.204;2023-11-19T10:58:12;9.68;;;6.75;;
25905;SDS011;13713;52.552;13.204;2023-11-19T11:00:50;10.52;;;6.38;;
25905;SDS011;13713;52.552;13.204;2023-11-19T11:03:19;10.25;;;6.75;;
25905;SDS011;13713;52.552;13.204;2023-11-19T11:05:48;9.45;;;6.95;;
25905;SDS011;13713;52.552;13.204;2023-11-19T11:08:15;9.57;;;6.68;;
25905;SDS011;13713;52.552;13.204;2023-11-19T11:10:54;9.60;;;7.15;;
25905;SDS011;13713;52.552;13.204;2023-11-19T11:13:23;10.82;;;6.65;;
25905;SDS011;13713;52.552;13.204;2023-11-19T11:15:49;8.70;;;6.72;;
25905;SDS011;13713;52.552;13.204;2023-11-19T11:18:16;9.65;;;7.00;;
25905;SDS011;13713;52.552;13.204;2023-11-19T11:20:45;8.65;;;6.75;;
25905;SDS011;13713;52.552;13.204;2023-11-19T11:28:46;9.93;;;6.80;;
25905;SDS011;13713;52.552;13.204;2023-11-19T11:34:27;9.10;;;6.82;;
25905;SDS011;13713;52.552;13.204;2023-11-19T11:37:18;9.35;;;6.53;;
25905;SDS011;13713;52.552;13.204;2023-11-19T11:40:13;9.40;;;6.57;;
25905;SDS011;13713;52.552;13.204;2023-11-19T11:42:41;9.25;;;6.60;;
25905;SDS011;13713;52.552;13.204;2023-11-19T11:45:14;9.52;;;6.57;;
25905;SDS011;13713;52.552;13.204;2023-11-19T11:50:12;9.82;;;6.10;;
25905;SDS011;13713;52.552;13.204;2023-11-19T11:55:26;12.10;;;7.60;;
25905;SDS011;13713;52.552;13.204;2023-11-19T11:57:53;11.57;;;7.03;;
25905;SDS011;13713;52.552;13.204;2023-11-19T12:03:00;10.88;;;6.63;;
25905;SDS011;13713;52.552;13.204;2023-11-19T12:05:27;9.00;;;6.07;;
25905;SDS011;13713;52.552;13.204;2023-11-19T12:08:00;8.82;;;6.03;;
25905;SDS011;13713;52.552;13.204;2023-11-19T12:10:37;9.50;;;6.53;;
25905;SDS011;13713;52.552;13.204;2023-11-19T12:13:09;10.32;;;6.68;;
25905;SDS011;13713;52.552;13.204;2023-11-19T12:18:30;8.55;;;6.38;;
25905;SDS011;13713;52.552;13.204;2023-11-19T12:20:57;12.15;;;7.00;;
25905;SDS011;13713;52.552;13.204;2023-11-19T12:23:26;9.82;;;6.05;;
25905;SDS011;13713;52.552;13.204;2023-11-19T12:25:54;8.90;;;6.28;;
25905;SDS011;13713;52.552;13.204;2023-11-19T12:28:20;10.75;;;6.60;;
25905;SDS011;13713;52.552;13.204;2023-11-19T12:30:46;11.70;;;7.15;;
25905;SDS011;13713;52.552;13.204;2023-11-19T12:33:13;10.75;;;6.25;;
25905;SDS011;13713;52.552;13.204;2023-11-19T12:35:40;10.27;;;6.40;;
25905;SDS011;13713;52.552;13.204;2023-11-19T12:38:44;11.65;;;6.30;;
25905;SDS011;13713;52.552;13.204;2023-11-19T12:41:06;10.70;;;6.35;;
25905;SDS011;13713;52.552;13.204;2023-11-19T12:43:33;9.40;;;6.53;;
25905;SDS011;13713;52.552;13.204;2023-11-19T12:45:59;10.20;;;6.55;;
25905;SDS011;13713;52.552;13.204;2023-11-19T12:48:25;8.57;;;5.93;;
25905;SDS011;13713;52.552;13.204;2023-11-19T12:50:52;8.75;;;6.43;;
25905;SDS011;13713;52.552;13.204;2023-11-19T12:53:18;8.75;;;5.97;;
25905;SDS011;13713;52.552;13.204;2023-11-19T12:55:44;10.75;;;6.25;;
25905;SDS011;13713;52.552;13.204;2023-11-19T12:58:10;9.48;;;6.00;;
25905;SDS011;13713;52.552;13.204;2023-11-19T13:00:58;9.00;;;6.03;;
25905;SDS011;13713;52.552;13.204;2023-11-19T13:03:32;9.60;;;6.38;;
25905;SDS011;13713;52.552;13.204;2023-11-19T13:06:05;9.90;;;6.50;;
25905;SDS011;13713;52.552;13.204;2023-11-19T13:11:11;9.38;;;6.00;;
25905;SDS011;13713;52.552;13.204;2023-11-19T13:13:53;9.15;;;5.88;;
25905;SDS011;13713;52.552;13.204;2023-11-19T13:16:20;10.43;;;5.93;;
25905;SDS011;13713;52.552;13.204;2023-11-19T13:18:46;9.15;;;6.05;;
25905;SDS011;13713;52.552;13.204;2023-11-19T13:21:12;8.85;;;6.18;;
25905;SDS011;13713;52.552;13.204;2023-11-19T13:23:38;11.88;;;6.50;;
25905;SDS011;13713;52.552;13.204;2023-11-19T13:26:04;10.13;;;6.07;;
25905;SDS011;13713;52.552;13.204;2023-11-19T13:28:30;8.85;;;6.13;;
25905;SDS011;13713;52.552;13.204;2023-11-19T13:30:56;11.60;;;6.53;;
25905;SDS011;13713;52.552;13.204;2023-11-19T13:33:23;9.10;;;6.25;;
25905;SDS011;13713;52.552;13.204;2023-11-19T13:35:49;9.68;;;6.68;;
25905;SDS011;13713;52.552;13.204;2023-11-19T13:38:14;10.55;;;6.45;;
25905;SDS011;13713;52.552;13.204;2023-11-19T13:40:40;9.73;;;6.22;;
25905;SDS011;13713;52.552;13.204;2023-11-19T13:43:05;10.18;;;6.55;;
25905;SDS011;13713;52.552;13.204;2023-11-19T13:45:32;9.57;;;5.93;;
25905;SDS011;13713;52.552;13.204;2023-11-19T13:47:58;9.07;;;5.85;;
25905;SDS011;13713;52.552;13.204;2023-11-19T13:50:23;10.05;;;5.75;;
25905;SDS011;13713;52.552;13.204;2023-11-19T13:52:49;9.82;;;5.68;;
25905;SDS011;13713;52.552;13.204;2023-11-19T13:55:15;10.18;;;6.10;;
25905;SDS011;13713;52.552;13.204;2023-11-19T13:57:41;11.63;;;6.30;;
25905;SDS011;13713;52.552;13.204;2023-11-19T14:00:09;11.25;;;6.10;;
25905;SDS011;13713;52.552;13.204;2023-11-19T14:02:47;10.05;;;5.68;;
25905;SDS011;13713;52.552;13.204;2023-11-19T14:05:14;9.85;;;6.28;;
25905;SDS011;13713;52.552;13.204;2023-11-19T14:07:44;11.15;;;6.18;;
25905;SDS011;13713;52.552;13.204;2023-11-19T14:10:11;14.77;;;6.28;;
25905;SDS011;13713;52.552;13.204;2023-11-19T14:12:37;8.55;;;5.38;;
25905;SDS011;13713;52.552;13.204;2023-11-19T14:15:04;10.82;;;6.20;;
25905;SDS011;13713;52.552;13.204;2023-11-19T14:17:37;11.50;;;5.85;;
25905;SDS011;13713;52.552;13.204;2023-11-19T14:20:04;9.73;;;6.53;;
25905;SDS011;13713;52.552;13.204;2023-11-19T14:22:44;16.25;;;6.40;;
25905;SDS011;13713;52.552;13.204;2023-11-19T14:25:14;11.88;;;6.22;;
25905;SDS011;13713;52.552;13.204;2023-11-19T14:27:41;11.65;;;6.28;;
25905;SDS011;13713;52.552;13.204;2023-11-19T14:30:11;10.27;;;5.43;;
25905;SDS011;13713;52.552;13.204;2023-11-19T14:32:38;12.45;;;6.07;;
25905;SDS011;13713;52.552;13.204;2023-11-19T14:35:06;13.45;;;6.05;;
25905;SDS011;13713;52.552;13.204;2023-11-19T14:37:32;11.02;;;6.20;;
25905;SDS011;13713;52.552;13.204;2023-11-19T14:39:58;9.13;;;5.15;;
25905;SDS011;13713;52.552;13.204;2023-11-19T14:42:25;12.43;;;6.20;;
25905;SDS011;13713;52.552;13.204;2023-11-19T14:44:51;10.45;;;5.65;;
25905;SDS011;13713;52.552;13.204;2023-11-19T14:47:20;13.35;;;5.57;;
25905;SDS011;13713;52.552;13.204;2023-11-19T14:49:47;11.55;;;6.25;;